Time,TemperatureF,DewpointF,PressureIn,WindDirection,WindDirectionDegrees,WindSpeedMPH,WindSpeedGustMPH,Humidity,HourlyPrecipIn,Conditions,Clouds,dailyrainin,SolarRadiationWatts/m^2,SoftwareType,DateUTC
2013-01-03 00:01:00,65.3,63.5,30.04,NNW,330,0.0,20.0,94,0.00,,,0.01,0,Wunderground v.1.15,2013-01-03 05:01:00,
2013-01-03 00:02:00,65.3,63.5,30.04,NNW,330,0.0,20.0,94,0.00,,,0.01,0,Wunderground v.1.15,2013-01-03 05:02:00,
2013-01-03 00:05:00,65.2,63.4,30.04,NNW,330,0.0,20.0,94,0.00,,,0.01,0,Wunderground v.1.15,2013-01-03 05:05:00,
2013-01-03 00:11:00,65.2,63.4,30.04,NNW,330,0.0,20.0,94,0.00,,,0.01,0,Wunderground v.1.15,2013-01-03 05:11:00,
2013-01-03 00:12:00,65.2,63.4,30.04,NNW,330,0.0,20.0,94,0.00,,,0.01,0,Wunderground v.1.15,2013-01-03 05:12:00,
2013-01-03 00:18:00,65.1,63.3,30.04,NNW,330,0.0,20.0,94,0.00,,,0.01,0,Wunderground v.1.15,2013-01-03 05:18:00,
2013-01-03 00:24:00,64.9,63.4,30.04,NNW,330,0.0,20.0,95,0.00,,,0.01,0,Wunderground v.1.15,2013-01-03 05:24:00,
2013-01-03 00:29:00,64.8,63.3,30.03,NNW,330,0.0,20.0,95,0.00,,,0.01,0,Wunderground v.1.15,2013-01-03 05:29:00,
2013-01-03 00:35:00,64.6,62.8,30.04,NNW,330,0.0,20.0,94,0.00,,,0.00,0,Wunderground v.1.15,2013-01-03 05:35:00,
2013-01-03 00:40:00,64.4,62.9,30.04,NNW,330,0.0,20.0,95,0.00,,,0.00,0,Wunderground v.1.15,2013-01-03 05:40:00,
2013-01-03 00:46:00,64.2,62.7,30.03,NNW,330,0.0,20.0,95,0.00,,,0.00,0,Wunderground v.1.15,2013-01-03 05:46:00,
2013-01-03 00:51:00,64.1,62.6,30.03,NNW,330,0.0,20.0,95,0.00,,,0.00,0,Wunderground v.1.15,2013-01-03 05:51:00,
2013-01-03 00:57:00,64.0,62.5,30.03,NNW,330,0.0,20.0,95,0.00,,,0.00,0,Wunderground v.1.15,2013-01-03 05:57:00,
2013-01-03 01:03:00,63.8,62.3,30.03,NNW,330,0.0,20.0,95,0.00,,,0.00,0,Wunderground v.1.15,2013-01-03 06:03:00,
2013-01-03 01:09:00,63.8,62.3,30.03,NNW,330,0.0,20.0,95,0.00,,,0.00,0,Wunderground v.1.15,2013-01-03 06:09:00,
2013-01-03 01:14:00,63.7,62.2,30.03,NNW,330,0.0,20.0,95,0.00,,,0.00,0,Wunderground v.1.15,2013-01-03 06:14:00,
2013-01-03 01:20:00,63.5,62.0,30.03,NNW,330,0.0,20.0,95,0.00,,,0.00,0,Wunderground v.1.15,2013-01-03 06:20:00,
2013-01-03 01:26:00,63.5,62.0,30.03,NNW,330,0.0,20.0,95,0.00,,,0.00,0,Wunderground v.1.15,2013-01-03 06:26:00,
2013-01-03 01:32:00,63.4,61.9,30.03,NNW,330,0.0,20.0,95,0.00,,,0.00,0,Wunderground v.1.15,2013-01-03 06:32:00,
2013-01-03 01:37:00,63.2,61.7,30.03,NNW,330,0.0,20.0,95,0.00,,,0.00,0,Wunderground v.1.15,2013-01-03 06:37:00,
2013-01-03 01:43:00,63.0,61.5,30.03,NNW,330,0.0,20.0,95,0.00,,,0.00,0,Wunderground v.1.15,2013-01-03 06:43:00,
2013-01-03 01:49:00,62.9,61.7,30.03,NNW,330,0.0,20.0,96,0.00,,,0.00,0,Wunderground v.1.15,2013-01-03 06:49:00,
2013-01-03 01:54:00,62.9,61.7,30.03,NNW,330,0.0,20.0,96,0.00,,,0.00,0,Wunderground v.1.15,2013-01-03 06:54:00,
2013-01-03 02:00:00,62.7,61.2,30.03,NNW,330,0.0,20.0,95,0.00,,,0.00,0,Wunderground v.1.15,2013-01-03 07:00:00,
2013-01-03 02:06:00,62.5,61.3,30.03,NNW,330,0.0,20.0,96,0.00,,,0.00,0,Wunderground v.1.15,2013-01-03 07:06:00,
2013-01-03 02:12:00,62.6,61.4,30.03,NNW,330,0.0,20.0,96,0.00,,,0.00,0,Wunderground v.1.15,2013-01-03 07:12:00,
2013-01-03 02:17:00,62.6,61.4,30.03,NNW,330,0.0,20.0,96,0.00,,,0.00,0,Wunderground v.1.15,2013-01-03 07:17:00,
2013-01-03 02:23:00,62.4,61.2,30.03,NNW,330,0.0,20.0,96,0.00,,,0.00,0,Wunderground v.1.15,2013-01-03 07:23:00,
2013-01-03 02:29:00,62.2,61.0,30.03,NNW,330,0.0,20.0,96,0.00,,,0.00,0,Wunderground v.1.15,2013-01-03 07:29:00,
2013-01-03 02:35:00,62.1,60.9,30.03,NNW,330,0.0,20.0,96,0.00,,,0.00,0,Wunderground v.1.15,2013-01-03 07:35:00,
2013-01-03 02:41:00,62.1,60.9,30.03,NNW,330,0.0,20.0,96,0.00,,,0.00,0,Wunderground v.1.15,2013-01-03 07:41:00,
2013-01-03 02:47:00,62.1,60.9,30.03,NNW,330,0.0,20.0,96,0.00,,,0.00,0,Wunderground v.1.15,2013-01-03 07:47:00,
2013-01-03 02:53:00,62.3,61.4,30.03,NNW,330,0.0,20.0,97,0.00,,,0.00,0,Wunderground v.1.15,2013-01-03 07:53:00,
2013-01-03 02:59:00,62.2,61.0,30.03,NNW,330,0.0,20.0,96,0.00,,,0.00,0,Wunderground v.1.15,2013-01-03 07:59:00,
2013-01-03 03:04:00,62.0,60.8,30.03,NNW,330,0.0,20.0,96,0.00,,,0.00,0,Wunderground v.1.15,2013-01-03 08:04:00,
2013-01-03 03:10:00,62.0,60.8,30.03,NNW,330,0.0,20.0,96,0.00,,,0.00,0,Wunderground v.1.15,2013-01-03 08:10:00,
2013-01-03 03:16:00,62.2,61.3,30.03,NNW,330,0.0,20.0,97,0.00,,,0.00,0,Wunderground v.1.15,2013-01-03 08:16:00,
2013-01-03 03:22:00,62.3,61.4,30.03,NNW,330,0.0,20.0,97,0.00,,,0.00,0,Wunderground v.1.15,2013-01-03 08:22:00,
2013-01-03 03:27:00,62.5,61.6,30.03,NNW,330,0.0,20.0,97,0.00,,,0.00,0,Wunderground v.1.15,2013-01-03 08:27:00,
2013-01-03 03:33:00,62.8,61.9,30.03,NNW,330,0.0,20.0,97,0.00,,,0.00,0,Wunderground v.1.15,2013-01-03 08:33:00,
2013-01-03 03:39:00,63.3,62.4,30.03,NNW,330,0.0,20.0,97,0.00,,,0.00,0,Wunderground v.1.15,2013-01-03 08:39:00,
2013-01-03 03:45:00,63.6,62.7,30.03,NNW,330,0.0,20.0,97,0.00,,,0.00,0,Wunderground v.1.15,2013-01-03 08:45:00,
2013-01-03 03:51:00,63.8,62.9,30.03,NNW,330,0.0,20.0,97,0.00,,,0.00,0,Wunderground v.1.15,2013-01-03 08:51:00,
2013-01-03 03:57:00,63.9,63.0,30.03,NNW,330,0.0,20.0,97,0.00,,,0.00,0,Wunderground v.1.15,2013-01-03 08:57:00,
2013-01-03 04:03:00,63.9,63.0,30.03,NNW,330,0.0,20.0,97,0.00,,,0.00,0,Wunderground v.1.15,2013-01-03 09:03:00,
2013-01-03 04:08:00,64.0,63.1,30.03,NNW,330,0.0,20.0,97,0.00,,,0.00,0,Wunderground v.1.15,2013-01-03 09:08:00,
2013-01-03 04:14:00,64.0,63.1,30.02,NNW,330,0.0,20.0,97,0.00,,,0.00,0,Wunderground v.1.15,2013-01-03 09:14:00,
2013-01-03 04:20:00,64.0,63.1,30.02,NNW,330,0.0,20.0,97,0.00,,,0.00,0,Wunderground v.1.15,2013-01-03 09:20:00,
2013-01-03 04:26:00,64.0,63.1,30.02,NNW,330,0.0,20.0,97,0.00,,,0.00,0,Wunderground v.1.15,2013-01-03 09:26:00,
2013-01-03 04:31:00,64.0,63.1,30.02,NNW,330,0.0,20.0,97,0.00,,,0.00,0,Wunderground v.1.15,2013-01-03 09:31:00,
2013-01-03 04:37:00,64.1,63.2,30.02,NNW,330,0.0,20.0,97,0.00,,,0.00,0,Wunderground v.1.15,2013-01-03 09:37:00,
2013-01-03 04:43:00,64.3,63.4,30.02,NNW,330,0.0,20.0,97,0.00,,,0.00,0,Wunderground v.1.15,2013-01-03 09:43:00,
2013-01-03 04:49:00,64.3,63.4,30.02,NNW,330,0.0,20.0,97,0.00,,,0.00,0,Wunderground v.1.15,2013-01-03 09:49:00,
2013-01-03 04:55:00,64.4,63.5,30.02,NNW,330,0.0,20.0,97,0.00,,,0.00,0,Wunderground v.1.15,2013-01-03 09:55:00,
2013-01-03 05:01:00,64.5,63.6,30.02,NNW,330,0.0,20.0,97,0.00,,,0.00,0,Wunderground v.1.15,2013-01-03 10:01:00,
2013-01-03 05:07:00,64.5,63.6,30.02,NNW,330,0.0,20.0,97,0.00,,,0.00,0,Wunderground v.1.15,2013-01-03 10:07:00,
2013-01-03 05:13:00,64.5,63.6,30.02,NNW,330,0.0,20.0,97,0.00,,,0.00,0,Wunderground v.1.15,2013-01-03 10:13:00,
2013-01-03 05:18:00,64.6,63.7,30.03,NNW,330,0.0,20.0,97,0.00,,,0.00,0,Wunderground v.1.15,2013-01-03 10:18:00,
2013-01-03 05:24:00,64.7,63.8,30.03,NNW,330,1.0,20.0,97,0.00,,,0.00,0,Wunderground v.1.15,2013-01-03 10:24:00,
2013-01-03 05:30:00,64.8,64.2,30.03,NNW,334,2.0,20.0,98,0.00,,,0.00,0,Wunderground v.1.15,2013-01-03 10:30:00,
2013-01-03 05:36:00,64.9,64.3,30.03,NNW,336,2.0,20.0,98,0.00,,,0.00,0,Wunderground v.1.15,2013-01-03 10:36:00,
2013-01-03 05:42:00,64.9,64.0,30.03,NNW,336,1.0,20.0,97,0.00,,,0.00,0,Wunderground v.1.15,2013-01-03 10:42:00,
2013-01-03 05:48:00,64.9,64.0,30.03,NNW,337,0.0,20.0,97,0.00,,,0.00,0,Wunderground v.1.15,2013-01-03 10:48:00,
2013-01-03 05:54:00,65.0,64.1,30.03,NNW,337,0.0,20.0,97,0.00,,,0.00,0,Wunderground v.1.15,2013-01-03 10:54:00,
2013-01-03 05:59:00,64.9,64.0,30.04,NNW,337,0.0,20.0,97,0.00,,,0.00,0,Wunderground v.1.15,2013-01-03 10:59:00,
2013-01-03 06:05:00,65.0,64.1,30.04,NNW,337,1.0,20.0,97,0.00,,,0.00,0,Wunderground v.1.15,2013-01-03 11:05:00,
2013-01-03 06:11:00,64.9,64.0,30.04,NNW,337,1.0,20.0,97,0.00,,,0.00,0,Wunderground v.1.15,2013-01-03 11:11:00,
2013-01-03 06:17:00,64.9,64.0,30.05,NNW,337,1.0,20.0,97,0.00,,,0.00,0,Wunderground v.1.15,2013-01-03 11:17:00,
2013-01-03 06:22:00,64.9,64.0,30.05,NNW,337,1.0,20.0,97,0.00,,,0.00,0,Wunderground v.1.15,2013-01-03 11:22:00,
2013-01-03 06:28:00,64.8,63.9,30.05,NNW,337,1.0,20.0,97,0.00,,,0.00,0,Wunderground v.1.15,2013-01-03 11:28:00,
2013-01-03 06:34:00,64.8,64.2,30.05,NNW,337,0.0,20.0,98,0.00,,,0.00,0,Wunderground v.1.15,2013-01-03 11:34:00,
2013-01-03 06:40:00,64.8,64.2,30.05,NNW,337,0.0,20.0,98,0.00,,,0.00,0,Wunderground v.1.15,2013-01-03 11:40:00,
2013-01-03 06:46:00,64.9,64.3,30.06,NNW,337,1.0,20.0,98,0.00,,,0.00,0,Wunderground v.1.15,2013-01-03 11:46:00,
2013-01-03 06:52:00,64.9,64.3,30.06,NNW,342,3.0,20.0,98,0.00,,,0.00,0,Wunderground v.1.15,2013-01-03 11:52:00,
2013-01-03 06:58:00,64.8,64.2,30.06,NNW,344,3.0,20.0,98,0.00,,,0.00,0,Wunderground v.1.15,2013-01-03 11:58:00,
2013-01-03 07:03:00,64.8,64.2,30.06,NNW,344,1.0,20.0,98,0.00,,,0.00,0,Wunderground v.1.15,2013-01-03 12:03:00,
2013-01-03 07:09:00,64.8,64.2,30.05,NNW,344,0.0,20.0,98,0.00,,,0.00,0,Wunderground v.1.15,2013-01-03 12:09:00,
2013-01-03 07:15:00,64.8,64.2,30.05,NNW,344,1.0,20.0,98,0.00,,,0.00,0,Wunderground v.1.15,2013-01-03 12:15:00,
2013-01-03 07:21:00,64.8,64.2,30.06,NNW,345,1.0,20.0,98,0.00,,,0.00,0,Wunderground v.1.15,2013-01-03 12:21:00,
2013-01-03 07:26:00,64.7,64.1,30.06,NNW,346,2.0,20.0,98,0.00,,,0.00,0,Wunderground v.1.15,2013-01-03 12:26:00,
2013-01-03 07:32:00,64.7,64.1,30.06,NNW,346,2.0,20.0,98,0.00,,,0.00,5,Wunderground v.1.15,2013-01-03 12:32:00,
2013-01-03 07:38:00,64.6,64.0,30.06,NNW,346,2.0,20.0,98,0.00,,,0.00,9,Wunderground v.1.15,2013-01-03 12:38:00,
2013-01-03 07:44:00,64.6,63.7,30.06,NNW,346,1.0,20.0,97,0.00,,,0.00,11,Wunderground v.1.15,2013-01-03 12:44:00,
2013-01-03 07:49:00,64.5,63.6,30.07,NNW,348,2.0,20.0,97,0.00,,,0.00,12,Wunderground v.1.15,2013-01-03 12:49:00,
2013-01-03 07:55:00,64.4,63.5,30.07,North,349,3.0,20.0,97,0.00,,,0.00,18,Wunderground v.1.15,2013-01-03 12:55:00,
2013-01-03 08:01:00,64.3,63.4,30.07,South,190,2.0,20.0,97,0.00,,,0.00,25,Wunderground v.1.15,2013-01-03 13:01:00,
2013-01-03 08:07:00,64.3,63.4,30.08,South,190,1.0,20.0,97,0.00,,,0.00,23,Wunderground v.1.15,2013-01-03 13:07:00,
2013-01-03 08:12:00,64.3,63.7,30.08,South,190,0.0,20.0,98,0.00,,,0.00,28,Wunderground v.1.15,2013-01-03 13:12:00,
2013-01-03 08:18:00,64.3,63.7,30.08,South,190,0.0,20.0,98,0.00,,,0.00,26,Wunderground v.1.15,2013-01-03 13:18:00,
2013-01-03 08:24:00,64.4,63.8,30.08,South,190,0.0,20.0,98,0.00,,,0.00,33,Wunderground v.1.15,2013-01-03 13:24:00,
2013-01-03 08:30:00,64.4,63.8,30.08,SSW,196,0.0,20.0,98,0.00,,,0.00,46,Wunderground v.1.15,2013-01-03 13:30:00,
2013-01-03 08:35:00,64.5,63.9,30.08,South,174,0.0,20.0,98,0.00,,,0.00,42,Wunderground v.1.15,2013-01-03 13:35:00,
2013-01-03 08:41:00,64.5,63.9,30.08,SSE,159,0.0,20.0,98,0.00,,,0.00,51,Wunderground v.1.15,2013-01-03 13:41:00,
2013-01-03 08:47:00,64.6,64.0,30.08,SE,146,1.0,20.0,98,0.00,,,0.00,56,Wunderground v.1.15,2013-01-03 13:47:00,
2013-01-03 08:53:00,64.7,64.1,30.08,ESE,104,1.0,20.0,98,0.00,,,0.00,62,Wunderground v.1.15,2013-01-03 13:53:00,
2013-01-03 08:59:00,64.8,64.2,30.09,ESE,104,1.0,20.0,98,0.00,,,0.00,77,Wunderground v.1.15,2013-01-03 13:59:00,
2013-01-03 09:05:00,64.8,64.2,30.09,ESE,104,0.0,20.0,98,0.00,,,0.00,91,Wunderground v.1.15,2013-01-03 14:05:00,
2013-01-03 09:11:00,64.8,64.2,30.09,ESE,104,1.0,20.0,98,0.00,,,0.00,95,Wunderground v.1.15,2013-01-03 14:11:00,
2013-01-03 09:16:00,64.9,64.3,30.09,ESE,103,1.0,20.0,98,0.00,,,0.00,109,Wunderground v.1.15,2013-01-03 14:16:00,
2013-01-03 09:22:00,64.9,64.3,30.09,ESE,103,2.0,20.0,98,0.00,,,0.00,118,Wunderground v.1.15,2013-01-03 14:22:00,
2013-01-03 09:28:00,64.8,64.2,30.09,ESE,102,1.0,20.0,98,0.00,,,0.00,105,Wunderground v.1.15,2013-01-03 14:28:00,
2013-01-03 09:34:00,64.8,64.2,30.09,ESE,102,1.0,20.0,98,0.00,,,0.00,127,Wunderground v.1.15,2013-01-03 14:34:00,
2013-01-03 09:40:00,64.8,64.2,30.09,ESE,102,0.0,20.0,98,0.00,,,0.00,125,Wunderground v.1.15,2013-01-03 14:40:00,
2013-01-03 09:46:00,65.0,64.4,30.09,ESE,102,0.0,20.0,98,0.00,,,0.00,104,Wunderground v.1.15,2013-01-03 14:46:00,
2013-01-03 09:51:00,65.0,64.4,30.09,ESE,102,0.0,20.0,98,0.00,,,0.00,118,Wunderground v.1.15,2013-01-03 14:51:00,
2013-01-03 09:57:00,65.0,64.4,30.09,ESE,102,0.0,20.0,98,0.00,,,0.00,149,Wunderground v.1.15,2013-01-03 14:57:00,
2013-01-03 10:03:00,65.0,64.4,30.09,ESE,102,0.0,20.0,98,0.00,,,0.00,139,Wunderground v.1.15,2013-01-03 15:03:00,
2013-01-03 10:09:00,65.2,64.6,30.10,ESE,102,0.0,20.0,98,0.00,,,0.00,146,Wunderground v.1.15,2013-01-03 15:09:00,
2013-01-03 10:14:00,65.4,64.8,30.10,ESE,102,0.0,20.0,98,0.00,,,0.00,135,Wunderground v.1.15,2013-01-03 15:14:00,
2013-01-03 10:20:00,65.6,65.0,30.10,ESE,102,0.0,20.0,98,0.00,,,0.00,141,Wunderground v.1.15,2013-01-03 15:20:00,
2013-01-03 10:26:00,65.7,65.1,30.10,ENE,78,1.0,20.0,98,0.00,,,0.00,149,Wunderground v.1.15,2013-01-03 15:26:00,
2013-01-03 10:31:00,65.7,65.1,30.10,ENE,78,1.0,20.0,98,0.00,,,0.00,176,Wunderground v.1.15,2013-01-03 15:31:00,
2013-01-03 10:37:00,65.6,65.0,30.10,ENE,78,0.0,20.0,98,0.00,,,0.00,209,Wunderground v.1.15,2013-01-03 15:37:00,
2013-01-03 10:43:00,65.8,65.2,30.09,ENE,78,0.0,20.0,98,0.00,,,0.00,237,Wunderground v.1.15,2013-01-03 15:43:00,
2013-01-03 10:49:00,65.9,65.3,30.10,ENE,78,0.0,20.0,98,0.00,,,0.00,230,Wunderground v.1.15,2013-01-03 15:49:00,
2013-01-03 10:54:00,65.9,65.3,30.10,ENE,78,0.0,20.0,98,0.00,,,0.00,248,Wunderground v.1.15,2013-01-03 15:54:00,
2013-01-03 11:00:00,65.9,65.3,30.10,ENE,78,0.0,20.0,98,0.00,,,0.00,264,Wunderground v.1.15,2013-01-03 16:00:00,
2013-01-03 11:06:00,66.2,65.3,30.10,ENE,78,1.0,20.0,97,0.00,,,0.00,315,Wunderground v.1.15,2013-01-03 16:06:00,
2013-01-03 11:12:00,66.4,65.5,30.10,ENE,78,2.0,20.0,97,0.00,,,0.00,323,Wunderground v.1.15,2013-01-03 16:12:00,
2013-01-03 11:17:00,66.7,65.8,30.09,ENE,78,3.0,20.0,97,0.00,,,0.00,279,Wunderground v.1.15,2013-01-03 16:17:00,
2013-01-03 11:23:00,66.8,65.9,30.09,ENE,78,2.0,20.0,97,0.00,,,0.00,457,Wunderground v.1.15,2013-01-03 16:23:00,
2013-01-03 11:29:00,67.6,66.7,30.09,SE,128,0.0,20.0,97,0.00,,,0.00,693,Wunderground v.1.15,2013-01-03 16:29:00,
2013-01-03 11:35:00,67.6,66.1,30.09,SE,138,0.0,20.0,95,0.00,,,0.00,301,Wunderground v.1.15,2013-01-03 16:35:00,
2013-01-03 11:41:00,67.4,65.6,30.09,SE,138,0.0,20.0,94,0.00,,,0.00,647,Wunderground v.1.15,2013-01-03 16:41:00,
2013-01-03 11:47:00,67.4,65.3,30.09,SE,138,0.0,20.0,93,0.00,,,0.00,318,Wunderground v.1.15,2013-01-03 16:47:00,
2013-01-03 11:53:00,67.5,65.4,30.08,SE,138,0.0,20.0,93,0.00,,,0.00,705,Wunderground v.1.15,2013-01-03 16:53:00,
2013-01-03 11:58:00,67.8,65.4,30.08,SE,138,0.0,20.0,92,0.00,,,0.00,696,Wunderground v.1.15,2013-01-03 16:58:00,
2013-01-03 12:04:00,68.5,66.1,30.08,SE,138,0.0,20.0,92,0.00,,,0.00,687,Wunderground v.1.15,2013-01-03 17:04:00,
2013-01-03 12:10:00,69.2,66.1,30.07,SE,138,0.0,20.0,90,0.00,,,0.00,707,Wunderground v.1.15,2013-01-03 17:10:00,
2013-01-03 12:16:00,69.5,66.1,30.07,SE,138,0.0,20.0,89,0.00,,,0.00,705,Wunderground v.1.15,2013-01-03 17:16:00,
2013-01-03 12:21:00,69.5,66.1,30.06,SE,138,0.0,20.0,89,0.00,,,0.00,891,Wunderground v.1.15,2013-01-03 17:21:00,
2013-01-03 12:27:00,69.5,66.1,30.06,SE,138,1.0,20.0,89,0.00,,,0.00,805,Wunderground v.1.15,2013-01-03 17:27:00,
2013-01-03 12:33:00,69.7,66.6,30.06,SE,138,2.0,20.0,90,0.00,,,0.00,728,Wunderground v.1.15,2013-01-03 17:33:00,
2013-01-03 12:39:00,70.0,66.6,30.05,SE,138,1.0,20.0,89,0.00,,,0.00,816,Wunderground v.1.15,2013-01-03 17:39:00,
2013-01-03 12:44:00,70.3,66.9,30.05,SE,138,1.0,20.0,89,0.00,,,0.00,703,Wunderground v.1.15,2013-01-03 17:44:00,
2013-01-03 12:50:00,70.6,66.9,30.05,SE,138,1.0,20.0,88,0.00,,,0.00,872,Wunderground v.1.15,2013-01-03 17:50:00,
2013-01-03 12:56:00,71.0,67.3,30.05,SE,138,1.0,20.0,88,0.00,,,0.00,737,Wunderground v.1.15,2013-01-03 17:56:00,
2013-01-03 13:02:00,71.1,66.7,30.05,SE,138,0.0,20.0,86,0.00,,,0.00,557,Wunderground v.1.15,2013-01-03 18:02:00,
2013-01-03 13:07:00,71.3,66.9,30.05,SE,138,0.0,20.0,86,0.00,,,0.00,638,Wunderground v.1.15,2013-01-03 18:07:00,
2013-01-03 13:13:00,72.1,67.3,30.04,SE,138,0.0,20.0,85,0.00,,,0.00,571,Wunderground v.1.15,2013-01-03 18:13:00,
2013-01-03 13:19:00,73.3,67.8,30.03,SE,138,0.0,20.0,83,0.00,,,0.00,703,Wunderground v.1.15,2013-01-03 18:19:00,
2013-01-03 13:25:00,74.1,67.9,30.03,SE,138,0.0,20.0,81,0.00,,,0.00,606,Wunderground v.1.15,2013-01-03 18:25:00,
2013-01-03 13:30:00,74.8,68.2,30.03,SE,138,0.0,20.0,80,0.00,,,0.00,721,Wunderground v.1.15,2013-01-03 18:30:00,
2013-01-03 13:36:00,75.5,68.9,30.03,SE,138,0.0,20.0,80,0.00,,,0.00,622,Wunderground v.1.15,2013-01-03 18:36:00,
2013-01-03 13:42:00,76.0,68.3,30.02,SE,138,0.0,20.0,77,0.00,,,0.00,388,Wunderground v.1.15,2013-01-03 18:42:00,
2013-01-03 13:48:00,75.8,68.4,30.03,SE,138,0.0,20.0,78,0.00,,,0.00,374,Wunderground v.1.15,2013-01-03 18:48:00,
2013-01-03 13:53:00,75.6,69.0,30.03,SE,138,0.0,20.0,80,0.00,,,0.00,352,Wunderground v.1.15,2013-01-03 18:53:00,
2013-01-03 13:59:00,75.3,68.0,30.03,SE,138,0.0,20.0,78,0.00,,,0.00,369,Wunderground v.1.15,2013-01-03 18:59:00,
2013-01-03 14:05:00,75.1,67.4,30.03,SE,138,0.0,20.0,77,0.00,,,0.00,313,Wunderground v.1.15,2013-01-03 19:05:00,
2013-01-03 14:11:00,75.2,67.5,30.03,SE,138,0.0,20.0,77,0.00,,,0.00,397,Wunderground v.1.15,2013-01-03 19:11:00,
2013-01-03 14:16:00,75.5,68.2,30.03,SE,138,0.0,20.0,78,0.00,,,0.00,264,Wunderground v.1.15,2013-01-03 19:16:00,
2013-01-03 14:51:00,74.2,67.3,30.03,NE,43,3.0,20.0,79,0.00,,,0.00,160,Wunderground v.1.15,2013-01-03 19:51:00,
2013-01-03 14:57:00,73.9,67.0,30.04,NE,37,4.0,20.0,79,0.00,,,0.00,84,Wunderground v.1.15,2013-01-03 19:57:00,
2013-01-03 15:03:00,73.5,66.6,30.04,NE,40,5.0,20.0,79,0.00,,,0.00,40,Wunderground v.1.15,2013-01-03 20:03:00,
2013-01-03 15:09:00,73.2,66.7,30.04,NE,38,4.0,20.0,80,0.00,,,0.00,53,Wunderground v.1.15,2013-01-03 20:09:00,
2013-01-03 15:15:00,72.7,66.2,30.04,NE,37,4.0,20.0,80,0.00,,,0.00,62,Wunderground v.1.15,2013-01-03 20:15:00,
2013-01-03 15:20:00,72.3,66.1,30.04,NE,51,6.0,6.0,81,0.00,,,0.00,53,Wunderground v.1.15,2013-01-03 20:20:00,
2013-01-03 15:26:00,71.7,65.9,30.04,NE,54,6.0,20.0,82,0.00,,,0.00,49,Wunderground v.1.15,2013-01-03 20:26:00,
2013-01-03 15:32:00,71.5,66.1,30.05,NE,52,5.0,20.0,83,0.00,,,0.00,53,Wunderground v.1.15,2013-01-03 20:32:00,
2013-01-03 15:38:00,71.2,65.8,30.04,NE,50,5.0,20.0,83,0.00,,,0.00,72,Wunderground v.1.15,2013-01-03 20:38:00,
2013-01-03 15:43:00,71.1,66.0,30.05,ENE,64,5.0,20.0,84,0.00,,,0.00,67,Wunderground v.1.15,2013-01-03 20:43:00,
2013-01-03 15:49:00,70.9,65.8,30.05,NNE,25,5.0,20.0,84,0.00,,,0.00,53,Wunderground v.1.15,2013-01-03 20:49:00,
2013-01-03 15:55:00,70.7,65.6,30.05,NE,41,6.0,20.0,84,0.00,,,0.00,62,Wunderground v.1.15,2013-01-03 20:55:00,
2013-01-03 16:01:00,70.5,65.4,30.06,NE,42,4.0,7.0,84,0.00,,,0.00,90,Wunderground v.1.15,2013-01-03 21:01:00,
2013-01-03 16:07:00,70.4,65.3,30.06,ENE,57,5.0,20.0,84,0.00,,,0.00,72,Wunderground v.1.15,2013-01-03 21:07:00,
2013-01-03 16:13:00,70.3,65.2,30.06,NNE,19,6.0,20.0,84,0.00,,,0.00,53,Wunderground v.1.15,2013-01-03 21:13:00,
2013-01-03 16:19:00,70.2,65.5,30.07,NE,38,5.0,20.0,85,0.00,,,0.00,42,Wunderground v.1.15,2013-01-03 21:19:00,
2013-01-03 16:24:00,70.0,65.3,30.07,NE,36,4.0,20.0,85,0.00,,,0.00,44,Wunderground v.1.15,2013-01-03 21:24:00,
2013-01-03 16:30:00,69.7,65.0,30.07,NE,42,5.0,20.0,85,0.00,,,0.00,42,Wunderground v.1.15,2013-01-03 21:30:00,
2013-01-03 16:36:00,69.5,64.8,30.07,NE,38,7.0,20.0,85,0.00,,,0.00,35,Wunderground v.1.15,2013-01-03 21:36:00,
2013-01-03 16:42:00,69.4,64.7,30.07,NE,54,8.0,20.0,85,0.00,,,0.00,30,Wunderground v.1.15,2013-01-03 21:42:00,
2013-01-03 16:47:00,69.2,64.8,30.07,NE,48,8.0,20.0,86,0.00,,,0.00,21,Wunderground v.1.15,2013-01-03 21:47:00,
2013-01-03 16:53:00,69.2,64.8,30.06,NE,44,7.0,20.0,86,0.00,,,0.00,26,Wunderground v.1.15,2013-01-03 21:53:00,
2013-01-03 16:58:00,69.1,64.7,30.07,NNE,32,8.0,20.0,86,0.00,,,0.00,14,Wunderground v.1.15,2013-01-03 21:58:00,
2013-01-03 17:04:00,68.5,64.1,30.07,ENE,59,9.0,20.0,86,0.00,,,0.00,14,Wunderground v.1.15,2013-01-03 22:04:00,
2013-01-03 17:10:00,67.6,63.3,30.08,NE,42,10.0,20.0,86,0.00,,,0.00,0,Wunderground v.1.15,2013-01-03 22:10:00,
2013-01-03 17:16:00,67.0,63.0,30.08,ENE,61,10.0,20.0,87,0.00,,,0.00,5,Wunderground v.1.15,2013-01-03 22:16:00,
2013-01-03 17:21:00,66.6,62.9,30.08,NE,56,9.0,12.0,88,0.00,,,0.00,0,Wunderground v.1.15,2013-01-03 22:21:00,
2013-01-03 17:27:00,66.3,62.6,30.08,NE,48,8.0,20.0,88,0.00,,,0.00,0,Wunderground v.1.15,2013-01-03 22:27:00,
2013-01-03 17:33:00,66.0,62.3,30.08,NE,52,8.0,20.0,88,0.00,,,0.00,0,Wunderground v.1.15,2013-01-03 22:33:00,
2013-01-03 17:39:00,65.8,62.5,30.08,ENE,73,8.0,20.0,89,0.00,,,0.00,0,Wunderground v.1.15,2013-01-03 22:39:00,
2013-01-03 17:44:00,65.7,62.4,30.09,NE,51,7.0,20.0,89,0.00,,,0.00,0,Wunderground v.1.15,2013-01-03 22:44:00,
2013-01-03 17:50:00,65.5,62.2,30.09,ENE,61,8.0,8.0,89,0.00,,,0.00,0,Wunderground v.1.15,2013-01-03 22:50:00,
2013-01-03 17:56:00,65.2,61.9,30.09,NE,51,9.0,20.0,89,0.00,,,0.00,0,Wunderground v.1.15,2013-01-03 22:56:00,
2013-01-03 18:02:00,64.8,61.5,30.09,NE,43,9.0,20.0,89,0.00,,,0.00,0,Wunderground v.1.15,2013-01-03 23:02:00,
2013-01-03 18:08:00,64.5,61.2,30.10,NE,43,9.0,20.0,89,0.00,,,0.00,0,Wunderground v.1.15,2013-01-03 23:08:00,
2013-01-03 18:14:00,64.1,60.8,30.09,NE,43,8.0,20.0,89,0.00,,,0.00,0,Wunderground v.1.15,2013-01-03 23:14:00,
2013-01-03 18:20:00,63.6,60.3,30.10,NNE,32,10.0,10.0,89,0.00,,,0.00,0,Wunderground v.1.15,2013-01-03 23:20:00,
2013-01-03 18:25:00,63.4,60.1,30.10,NE,46,10.0,20.0,89,0.00,,,0.00,0,Wunderground v.1.15,2013-01-03 23:25:00,
2013-01-03 18:31:00,63.1,59.8,30.10,NE,41,10.0,12.0,89,0.00,,,0.00,0,Wunderground v.1.15,2013-01-03 23:31:00,
2013-01-03 18:37:00,62.8,59.5,30.10,NE,38,10.0,20.0,89,0.00,,,0.00,0,Wunderground v.1.15,2013-01-03 23:37:00,
2013-01-03 18:43:00,62.6,59.3,30.11,NNE,28,8.0,20.0,89,0.00,,,0.00,0,Wunderground v.1.15,2013-01-03 23:43:00,
2013-01-03 18:48:00,62.5,59.2,30.11,NNE,13,7.0,20.0,89,0.00,,,0.00,0,Wunderground v.1.15,2013-01-03 23:48:00,
2013-01-03 18:54:00,62.2,58.9,30.12,North,7,7.0,20.0,89,0.00,,,0.00,0,Wunderground v.1.15,2013-01-03 23:54:00,
2013-01-03 19:00:00,62.0,58.4,30.12,NNE,25,8.0,20.0,88,0.00,,,0.00,0,Wunderground v.1.15,2013-01-04 00:00:00,
2013-01-03 19:06:00,61.7,58.1,30.12,NE,44,9.0,20.0,88,0.00,,,0.00,0,Wunderground v.1.15,2013-01-04 00:06:00,
2013-01-03 19:12:00,61.5,57.9,30.12,NE,39,8.0,20.0,88,0.00,,,0.00,0,Wunderground v.1.15,2013-01-04 00:12:00,
2013-01-03 19:18:00,61.3,57.7,30.13,NNE,33,8.0,20.0,88,0.00,,,0.00,0,Wunderground v.1.15,2013-01-04 00:18:00,
2013-01-03 19:24:00,61.3,57.7,30.13,NNE,19,8.0,20.0,88,0.00,,,0.00,0,Wunderground v.1.15,2013-01-04 00:24:00,
2013-01-03 19:30:00,61.2,57.6,30.14,NNE,27,7.0,7.0,88,0.00,,,0.00,0,Wunderground v.1.15,2013-01-04 00:30:00,
2013-01-03 19:35:00,61.2,57.9,30.14,NNE,22,6.0,20.0,89,0.00,,,0.00,0,Wunderground v.1.15,2013-01-04 00:35:00,
2013-01-03 19:41:00,61.1,57.8,30.14,NNE,21,6.0,20.0,89,0.00,,,0.00,0,Wunderground v.1.15,2013-01-04 00:41:00,
2013-01-03 19:47:00,60.9,57.6,30.14,NE,38,8.0,20.0,89,0.00,,,0.00,0,Wunderground v.1.15,2013-01-04 00:47:00,
2013-01-03 19:53:00,60.7,57.7,30.14,NNE,26,7.0,20.0,90,0.00,,,0.00,0,Wunderground v.1.15,2013-01-04 00:53:00,
2013-01-03 19:59:00,60.5,57.6,30.14,NE,39,6.0,20.0,90,0.00,,,0.00,0,Wunderground v.1.15,2013-01-04 00:59:00,
2013-01-03 20:05:00,60.2,57.3,30.14,NE,45,7.0,20.0,90,0.00,,,0.00,0,Wunderground v.1.15,2013-01-04 01:05:00,
2013-01-03 20:11:00,60.0,57.4,30.14,NNE,30,6.0,20.0,91,0.00,,,0.00,0,Wunderground v.1.15,2013-01-04 01:11:00,
2013-01-03 20:16:00,59.8,57.2,30.14,North,5,6.0,20.0,91,0.00,,,0.00,0,Wunderground v.1.15,2013-01-04 01:16:00,
2013-01-03 20:22:00,59.7,56.8,30.15,NNE,18,6.0,20.0,90,0.00,,,0.00,0,Wunderground v.1.15,2013-01-04 01:22:00,
2013-01-03 20:28:00,59.5,56.6,30.15,NNE,24,6.0,20.0,90,0.00,,,0.00,0,Wunderground v.1.15,2013-01-04 01:28:00,
2013-01-03 20:34:00,59.5,56.6,30.15,NE,35,5.0,20.0,90,0.00,,,0.00,0,Wunderground v.1.15,2013-01-04 01:34:00,
2013-01-03 20:39:00,59.5,56.6,30.16,North,358,5.0,20.0,90,0.00,,,0.01,0,Wunderground v.1.15,2013-01-04 01:39:00,
2013-01-03 20:45:00,59.5,56.6,30.15,NE,44,4.0,20.0,90,0.00,,,0.01,0,Wunderground v.1.15,2013-01-04 01:45:00,
2013-01-03 20:51:00,59.4,56.5,30.15,NE,38,5.0,20.0,90,0.00,,,0.01,0,Wunderground v.1.15,2013-01-04 01:51:00,
2013-01-03 20:57:00,59.4,56.8,30.15,NNE,25,4.0,20.0,91,0.00,,,0.01,0,Wunderground v.1.15,2013-01-04 01:57:00,
2013-01-03 21:03:00,59.3,56.7,30.16,NE,38,3.0,20.0,91,0.00,,,0.01,0,Wunderground v.1.15,2013-01-04 02:03:00,
2013-01-03 21:09:00,59.3,56.7,30.16,NE,36,2.0,20.0,91,0.00,,,0.01,0,Wunderground v.1.15,2013-01-04 02:09:00,
2013-01-03 21:15:00,59.3,56.7,30.16,NNE,30,2.0,20.0,91,0.00,,,0.01,0,Wunderground v.1.15,2013-01-04 02:15:00,
2013-01-03 21:20:00,59.2,56.9,30.16,NE,42,2.0,20.0,92,0.00,,,0.01,0,Wunderground v.1.15,2013-01-04 02:20:00,
2013-01-03 21:26:00,59.2,56.9,30.16,NE,41,2.0,20.0,92,0.00,,,0.01,0,Wunderground v.1.15,2013-01-04 02:26:00,
2013-01-03 21:32:00,59.1,56.8,30.16,NNE,32,3.0,20.0,92,0.00,,,0.01,0,Wunderground v.1.15,2013-01-04 02:32:00,
2013-01-03 21:38:00,59.1,56.8,30.16,NNE,27,3.0,20.0,92,0.00,,,0.01,0,Wunderground v.1.15,2013-01-04 02:38:00,
2013-01-03 21:44:00,59.1,57.1,30.16,NNE,21,3.0,20.0,93,0.00,,,0.01,0,Wunderground v.1.15,2013-01-04 02:44:00,
2013-01-03 21:50:00,59.0,57.6,30.16,NNE,17,4.0,4.0,95,0.00,,,0.01,0,Wunderground v.1.15,2013-01-04 02:50:00,
2013-01-03 21:56:00,58.9,56.9,30.17,NNE,14,5.0,20.0,93,0.00,,,0.01,0,Wunderground v.1.15,2013-01-04 02:56:00,
2013-01-03 22:02:00,58.9,56.9,30.17,NNW,344,3.0,20.0,93,0.00,,,0.01,0,Wunderground v.1.15,2013-01-04 03:02:00,
2013-01-03 22:07:00,59.0,57.0,30.17,NNW,344,3.0,20.0,93,0.00,,,0.01,0,Wunderground v.1.15,2013-01-04 03:07:00,
2013-01-03 22:13:00,59.0,57.0,30.17,North,352,2.0,20.0,93,0.00,,,0.01,0,Wunderground v.1.15,2013-01-04 03:13:00,
2013-01-03 22:19:00,59.0,57.0,30.16,NNE,19,2.0,20.0,93,0.00,,,0.01,0,Wunderground v.1.15,2013-01-04 03:19:00,
2013-01-03 22:25:00,59.1,57.1,30.16,NNE,32,3.0,20.0,93,0.00,,,0.01,0,Wunderground v.1.15,2013-01-04 03:25:00,
2013-01-03 22:30:00,59.1,57.4,30.16,NE,43,5.0,5.0,94,0.00,,,0.01,0,Wunderground v.1.15,2013-01-04 03:30:00,
2013-01-03 22:36:00,59.2,57.5,30.16,NE,40,4.0,20.0,94,0.00,,,0.01,0,Wunderground v.1.15,2013-01-04 03:36:00,
2013-01-03 22:42:00,59.2,57.5,30.16,NE,41,5.0,20.0,94,0.00,,,0.01,0,Wunderground v.1.15,2013-01-04 03:42:00,
2013-01-03 22:48:00,59.2,57.5,30.16,NE,49,5.0,20.0,94,0.00,,,0.01,0,Wunderground v.1.15,2013-01-04 03:48:00,
2013-01-03 22:54:00,59.2,57.5,30.16,NNE,31,5.0,20.0,94,0.00,,,0.01,0,Wunderground v.1.15,2013-01-04 03:54:00,
2013-01-03 23:00:00,59.3,57.6,30.16,NNE,28,4.0,4.0,94,0.00,,,0.01,0,Wunderground v.1.15,2013-01-04 04:00:00,
2013-01-03 23:06:00,59.3,57.9,30.16,NNE,19,3.0,20.0,95,0.00,,,0.01,0,Wunderground v.1.15,2013-01-04 04:06:00,
2013-01-03 23:11:00,59.4,58.0,30.16,NNE,13,4.0,20.0,95,0.00,,,0.02,0,Wunderground v.1.15,2013-01-04 04:11:00,
2013-01-03 23:17:00,59.3,57.9,30.16,NNE,31,3.0,20.0,95,0.11,,,0.03,0,Wunderground v.1.15,2013-01-04 04:17:00,
2013-01-03 23:23:00,59.4,58.0,30.16,NNE,25,2.0,20.0,95,0.06,,,0.04,0,Wunderground v.1.15,2013-01-04 04:23:00,
2013-01-03 23:29:00,59.4,58.0,30.16,NE,42,4.0,20.0,95,0.06,,,0.04,0,Wunderground v.1.15,2013-01-04 04:29:00,
2013-01-03 23:34:00,59.5,58.1,30.16,NNE,29,4.0,20.0,95,0.05,,,0.04,0,Wunderground v.1.15,2013-01-04 04:34:00,
2013-01-03 23:40:00,59.5,58.1,30.16,NNE,30,4.0,20.0,95,0.00,,,0.04,0,Wunderground v.1.15,2013-01-04 04:40:00,
2013-01-03 23:46:00,59.5,58.1,30.16,NNE,32,4.0,20.0,95,0.00,,,0.04,0,Wunderground v.1.15,2013-01-04 04:46:00,
2013-01-03 23:52:00,59.5,58.1,30.15,NE,37,4.0,20.0,95,0.00,,,0.04,0,Wunderground v.1.15,2013-01-04 04:52:00,
2013-01-03 23:58:00,59.5,58.1,30.14,NE,34,4.0,20.0,95,0.00,,,0.04,0,Wunderground v.1.15,2013-01-04 04:58:00,